sensor_id;sensor_type;location;lat;lon;timestamp;pressure;altitude;pressure_sealevel;temperature;humidity
62592;BME280;48659;41.622;2.276;2023-02-10T00:01:34;101822.83;;;2.80;55.90
62592;BME280;48659;41.622;2.276;2023-02-10T00:04:10;101821.67;;;2.01;60.10
62592;BME280;48659;41.622;2.276;2023-02-10T00:06:38;101823.58;;;1.92;61.37
62592;BME280;48659;41.622;2.276;2023-02-10T00:09:05;101826.41;;;1.30;62.72
62592;BME280;48659;41.622;2.276;2023-02-10T00:11:33;101827.00;;;1.06;63.38
62592;BME280;48659;41.622;2.276;2023-02-10T00:14:07;101822.86;;;1.28;62.18
62592;BME280;48659;41.622;2.276;2023-02-10T00:16:35;101818.02;;;2.03;61.09
62592;BME280;48659;41.622;2.276;2023-02-10T00:19:18;101816.67;;;2.06;60.55
62592;BME280;48659;41.622;2.276;2023-02-10T00:21:45;101815.24;;;2.23;59.54
62592;BME280;48659;41.622;2.276;2023-02-10T00:24:13;101818.97;;;1.85;61.46
62592;BME280;48659;41.622;2.276;2023-02-10T00:26:40;101807.94;;;2.06;61.42
62592;BME280;48659;41.622;2.276;2023-02-10T00:29:08;101813.41;;;1.90;60.64
62592;BME280;48659;41.622;2.276;2023-02-10T00:31:35;101805.69;;;2.97;58.05
62592;BME280;48659;41.622;2.276;2023-02-10T00:34:02;101810.12;;;2.04;60.02
62592;BME280;48659;41.622;2.276;2023-02-10T00:36:35;101811.35;;;3.27;57.57
62592;BME280;48659;41.622;2.276;2023-02-10T00:39:11;101811.80;;;2.93;57.23
62592;BME280;48659;41.622;2.276;2023-02-10T00:39:13;101814.67;;;3.28;57.09
62592;BME280;48659;41.622;2.276;2023-02-10T00:41:41;101811.90;;;3.36;56.20
62592;BME280;48659;41.622;2.276;2023-02-10T00:44:09;101814.29;;;2.94;56.74
62592;BME280;48659;41.622;2.276;2023-02-10T00:46:37;101809.24;;;3.68;56.10
62592;BME280;48659;41.622;2.276;2023-02-10T00:49:12;101806.25;;;3.07;57.44
62592;BME280;48659;41.622;2.276;2023-02-10T00:51:40;101798.42;;;3.71;55.84
62592;BME280;48659;41.622;2.276;2023-02-10T00:54:08;101794.96;;;3.97;54.44
62592;BME280;48659;41.622;2.276;2023-02-10T00:56:35;101798.28;;;5.20;51.95
62592;BME280;48659;41.622;2.276;2023-02-10T00:59:10;101794.71;;;5.55;50.27
62592;BME280;48659;41.622;2.276;2023-02-10T01:01:39;101796.84;;;4.76;51.20
62592;BME280;48659;41.622;2.276;2023-02-10T01:04:07;101794.34;;;4.17;53.50
62592;BME280;48659;41.622;2.276;2023-02-10T01:06:34;101801.29;;;3.26;54.55
62592;BME280;48659;41.622;2.276;2023-02-10T01:09:08;101803.34;;;3.35;56.02
62592;BME280;48659;41.622;2.276;2023-02-10T01:11:36;101802.87;;;2.97;57.33
62592;BME280;48659;41.622;2.276;2023-02-10T01:14:04;101799.97;;;4.45;52.91
62592;BME280;48659;41.622;2.276;2023-02-10T01:16:31;101802.40;;;4.93;51.68
62592;BME280;48659;41.622;2.276;2023-02-10T01:19:00;101803.78;;;4.73;51.70
62592;BME280;48659;41.622;2.276;2023-02-10T01:21:28;101803.30;;;4.61;51.66
62592;BME280;48659;41.622;2.276;2023-02-10T01:23:56;101804.07;;;5.25;50.46
62592;BME280;48659;41.622;2.276;2023-02-10T01:26:24;101804.64;;;5.08;50.21
62592;BME280;48659;41.622;2.276;2023-02-10T01:28:51;101805.43;;;4.03;51.58
62592;BME280;48659;41.622;2.276;2023-02-10T01:31:20;101807.26;;;4.29;51.91
62592;BME280;48659;41.622;2.276;2023-02-10T01:33:50;101810.71;;;5.10;50.18
62592;BME280;48659;41.622;2.276;2023-02-10T01:36:20;101810.39;;;5.32;49.83
62592;BME280;48659;41.622;2.276;2023-02-10T01:38:49;101810.43;;;5.29;50.39
62592;BME280;48659;41.622;2.276;2023-02-10T01:41:18;101806.69;;;3.49;52.36
62592;BME280;48659;41.622;2.276;2023-02-10T01:43:57;101814.33;;;1.81;58.19
62592;BME280;48659;41.622;2.276;2023-02-10T01:46:27;101810.83;;;3.48;55.59
62592;BME280;48659;41.622;2.276;2023-02-10T01:48:56;101809.82;;;2.51;56.97
62592;BME280;48659;41.622;2.276;2023-02-10T01:51:27;101802.77;;;4.04;53.63
62592;BME280;48659;41.622;2.276;2023-02-10T01:54:00;101806.71;;;4.53;51.81
62592;BME280;48659;41.622;2.276;2023-02-10T01:56:28;101808.79;;;4.94;51.43
62592;BME280;48659;41.622;2.276;2023-02-10T01:58:55;101809.66;;;4.73;51.25
62592;BME280;48659;41.622;2.276;2023-02-10T02:01:24;101810.81;;;3.93;52.76
62592;BME280;48659;41.622;2.276;2023-02-10T02:03:53;101809.51;;;4.10;53.03
62592;BME280;48659;41.622;2.276;2023-02-10T02:06:20;101819.03;;;2.69;55.38
62592;BME280;48659;41.622;2.276;2023-02-10T02:08:49;101818.16;;;2.76;56.60
62592;BME280;48659;41.622;2.276;2023-02-10T02:11:21;101812.10;;;4.05;52.73
62592;BME280;48659;41.622;2.276;2023-02-10T02:14:00;101810.18;;;4.88;50.88
62592;BME280;48659;41.622;2.276;2023-02-10T02:16:41;101807.32;;;4.55;52.02
62592;BME280;48659;41.622;2.276;2023-02-10T02:19:25;101807.42;;;5.17;50.57
62592;BME280;48659;41.622;2.276;2023-02-10T02:22:33;101802.88;;;4.59;50.92
62592;BME280;48659;41.622;2.276;2023-02-10T02:25:18;101802.05;;;4.64;50.85
62592;BME280;48659;41.622;2.276;2023-02-10T02:27:58;101800.12;;;5.30;49.78
62592;BME280;48659;41.622;2.276;2023-02-10T02:31:14;101802.70;;;5.18;49.84
62592;BME280;48659;41.622;2.276;2023-02-10T02:33:47;101803.16;;;5.09;50.17
62592;BME280;48659;41.622;2.276;2023-02-10T02:36:20;101803.56;;;5.46;50.04
62592;BME280;48659;41.622;2.276;2023-02-10T02:38:50;101806.02;;;5.32;50.26
62592;BME280;48659;41.622;2.276;2023-02-10T02:41:23;101804.27;;;5.28;49.73
62592;BME280;48659;41.622;2.276;2023-02-10T02:43:50;101800.07;;;5.56;49.26
62592;BME280;48659;41.622;2.276;2023-02-10T02:46:25;101804.48;;;5.27;49.58
62592;BME280;48659;41.622;2.276;2023-02-10T02:48:59;101805.94;;;5.26;50.82
62592;BME280;48659;41.622;2.276;2023-02-10T02:51:38;101805.29;;;4.63;51.23
62592;BME280;48659;41.622;2.276;2023-02-10T02:54:16;101805.96;;;4.93;50.71
62592;BME280;48659;41.622;2.276;2023-02-10T02:56:52;101804.43;;;5.20;50.26
62592;BME280;48659;41.622;2.276;2023-02-10T02:59:29;101797.40;;;4.92;50.70
62592;BME280;48659;41.622;2.276;2023-02-10T03:02:13;101796.70;;;4.91;50.67
62592;BME280;48659;41.622;2.276;2023-02-10T03:04:42;101793.16;;;4.75;51.07
62592;BME280;48659;41.622;2.276;2023-02-10T03:07:10;101789.64;;;4.67;51.17
62592;BME280;48659;41.622;2.276;2023-02-10T03:09:38;101786.69;;;4.79;51.04
62592;BME280;48659;41.622;2.276;2023-02-10T03:12:08;101786.87;;;4.93;50.92
62592;BME280;48659;41.622;2.276;2023-02-10T03:14:36;101786.68;;;5.47;50.18
62592;BME280;48659;41.622;2.276;2023-02-10T03:17:03;101781.53;;;5.42;49.81
62592;BME280;48659;41.622;2.276;2023-02-10T03:19:30;101785.39;;;5.04;50.57
62592;BME280;48659;41.622;2.276;2023-02-10T03:21:58;101785.41;;;5.14;50.64
62592;BME280;48659;41.622;2.276;2023-02-10T03:24:26;101787.15;;;4.73;50.97
62592;BME280;48659;41.622;2.276;2023-02-10T03:26:53;101785.41;;;4.70;51.15
62592;BME280;48659;41.622;2.276;2023-02-10T03:29:22;101782.97;;;4.83;49.84
62592;BME280;48659;41.622;2.276;2023-02-10T03:31:49;101773.91;;;4.34;51.35
62592;BME280;48659;41.622;2.276;2023-02-10T03:34:17;101779.93;;;2.06;55.69
62592;BME280;48659;41.622;2.276;2023-02-10T03:36:44;101771.09;;;3.57;53.58
62592;BME280;48659;41.622;2.276;2023-02-10T03:39:12;101770.67;;;4.32;51.35
62592;BME280;48659;41.622;2.276;2023-02-10T03:41:40;101770.49;;;4.64;50.67
62592;BME280;48659;41.622;2.276;2023-02-10T03:44:08;101772.30;;;4.40;50.72
62592;BME280;48659;41.622;2.276;2023-02-10T03:46:35;101775.85;;;5.26;49.81
62592;BME280;48659;41.622;2.276;2023-02-10T03:49:08;101774.96;;;4.96;50.20
62592;BME280;48659;41.622;2.276;2023-02-10T03:51:36;101773.34;;;5.05;49.65
62592;BME280;48659;41.622;2.276;2023-02-10T03:54:09;101770.63;;;4.55;50.48
62592;BME280;48659;41.622;2.276;2023-02-10T03:56:36;101773.20;;;4.77;50.29
62592;BME280;48659;41.622;2.276;2023-02-10T03:59:07;101767.93;;;5.54;48.57
62592;BME280;48659;41.622;2.276;2023-02-10T04:01:34;101771.00;;;5.28;49.63
62592;BME280;48659;41.622;2.276;2023-02-10T04:04:02;101776.46;;;4.75;50.40
62592;BME280;48659;41.622;2.276;2023-02-10T04:06:29;101778.32;;;5.23;50.48
62592;BME280;48659;41.622;2.276;2023-02-10T04:08:57;101773.04;;;4.19;51.45
62592;BME280;48659;41.622;2.276;2023-02-10T04:11:26;101773.48;;;4.83;51.09
62592;BME280;48659;41.622;2.276;2023-02-10T04:13:53;101772.03;;;3.59;52.54
62592;BME280;48659;41.622;2.276;2023-02-10T04:16:21;101777.38;;;2.82;55.40
62592;BME280;48659;41.622;2.276;2023-02-10T04:18:48;101782.46;;;4.36;51.87
62592;BME280;48659;41.622;2.276;2023-02-10T04:21:15;101782.09;;;3.69;52.28
62592;BME280;48659;41.622;2.276;2023-02-10T04:23:43;101789.90;;;4.14;52.50
62592;BME280;48659;41.622;2.276;2023-02-10T04:26:10;101792.45;;;3.51;52.66
62592;BME280;48659;41.622;2.276;2023-02-10T04:28:39;101795.11;;;2.37;54.77
62592;BME280;48659;41.622;2.276;2023-02-10T04:31:06;101789.18;;;4.65;51.19
62592;BME280;48659;41.622;2.276;2023-02-10T04:33:34;101787.23;;;3.70;52.94
62592;BME280;48659;41.622;2.276;2023-02-10T04:36:03;101798.09;;;1.81;56.76
62592;BME280;48659;41.622;2.276;2023-02-10T04:38:30;101806.86;;;0.97;60.36
62592;BME280;48659;41.622;2.276;2023-02-10T04:40:58;101800.97;;;0.99;59.26
62592;BME280;48659;41.622;2.276;2023-02-10T04:43:25;101794.95;;;1.86;58.34
62592;BME280;48659;41.622;2.276;2023-02-10T04:45:52;101796.48;;;2.13;58.75
62592;BME280;48659;41.622;2.276;2023-02-10T04:48:20;101792.53;;;1.93;57.42
62592;BME280;48659;41.622;2.276;2023-02-10T04:50:47;101793.70;;;1.01;60.84
62592;BME280;48659;41.622;2.276;2023-02-10T04:53:15;101789.49;;;2.07;57.74
62592;BME280;48659;41.622;2.276;2023-02-10T04:55:43;101788.50;;;2.73;56.41
62592;BME280;48659;41.622;2.276;2023-02-10T04:58:11;101794.36;;;2.24;57.39
62592;BME280;48659;41.622;2.276;2023-02-10T05:00:38;101799.90;;;1.25;60.05
62592;BME280;48659;41.622;2.276;2023-02-10T05:03:05;101794.79;;;1.66;56.96
62592;BME280;48659;41.622;2.276;2023-02-10T05:05:33;101794.56;;;1.37;57.03
62592;BME280;48659;41.622;2.276;2023-02-10T05:08:00;101787.41;;;3.01;53.26
62592;BME280;48659;41.622;2.276;2023-02-10T05:10:28;101781.31;;;3.56;52.94
62592;BME280;48659;41.622;2.276;2023-02-10T05:12:56;101786.44;;;4.38;50.92
62592;BME280;48659;41.622;2.276;2023-02-10T05:15:23;101798.58;;;3.22;52.47
62592;BME280;48659;41.622;2.276;2023-02-10T05:17:50;101807.70;;;2.40;55.50
62592;BME280;48659;41.622;2.276;2023-02-10T05:20:18;101800.35;;;4.55;51.66
62592;BME280;48659;41.622;2.276;2023-02-10T05:22:46;101804.88;;;4.87;50.98
62592;BME280;48659;41.622;2.276;2023-02-10T05:25:13;101806.74;;;4.65;51.02
62592;BME280;48659;41.622;2.276;2023-02-10T05:27:41;101809.80;;;5.19;49.11
62592;BME280;48659;41.622;2.276;2023-02-10T05:30:11;101812.43;;;4.59;50.66
62592;BME280;48659;41.622;2.276;2023-02-10T05:32:39;101817.30;;;3.50;53.02
62592;BME280;48659;41.622;2.276;2023-02-10T05:35:06;101824.41;;;4.59;51.36
62592;BME280;48659;41.622;2.276;2023-02-10T05:37:34;101825.17;;;4.56;50.91
62592;BME280;48659;41.622;2.276;2023-02-10T05:40:03;101825.74;;;4.15;52.24
62592;BME280;48659;41.622;2.276;2023-02-10T05:42:30;101833.54;;;4.02;52.54
62592;BME280;48659;41.622;2.276;2023-02-10T05:44:59;101834.40;;;4.33;51.93
62592;BME280;48659;41.622;2.276;2023-02-10T05:47:27;101837.80;;;3.93;51.91
62592;BME280;48659;41.622;2.276;2023-02-10T05:49:54;101836.91;;;3.83;53.40
62592;BME280;48659;41.622;2.276;2023-02-10T05:52:22;101834.36;;;4.21;52.85
62592;BME280;48659;41.622;2.276;2023-02-10T05:54:49;101834.51;;;4.23;52.19
62592;BME280;48659;41.622;2.276;2023-02-10T05:57:16;101831.39;;;4.13;52.20
62592;BME280;48659;41.622;2.276;2023-02-10T05:59:44;101826.35;;;4.13;52.70
62592;BME280;48659;41.622;2.276;2023-02-10T06:02:11;101826.33;;;4.29;52.95
62592;BME280;48659;41.622;2.276;2023-02-10T06:04:38;101828.91;;;4.00;52.72
62592;BME280;48659;41.622;2.276;2023-02-10T06:07:05;101825.98;;;4.01;52.29
62592;BME280;48659;41.622;2.276;2023-02-10T06:09:33;101830.21;;;4.19;52.48
62592;BME280;48659;41.622;2.276;2023-02-10T06:12:00;101834.88;;;4.26;51.58
62592;BME280;48659;41.622;2.276;2023-02-10T06:14:28;101842.47;;;4.09;52.40
62592;BME280;48659;41.622;2.276;2023-02-10T06:16:56;101846.71;;;3.88;54.56
62592;BME280;48659;41.622;2.276;2023-02-10T06:19:23;101842.24;;;3.80;53.02
62592;BME280;48659;41.622;2.276;2023-02-10T06:21:51;101837.80;;;4.62;51.97
62592;BME280;48659;41.622;2.276;2023-02-10T06:24:18;101842.04;;;3.61;53.29
62592;BME280;48659;41.622;2.276;2023-02-10T06:26:45;101841.89;;;3.72;53.62
62592;BME280;48659;41.622;2.276;2023-02-10T06:29:13;101844.02;;;3.95;52.33
62592;BME280;48659;41.622;2.276;2023-02-10T06:31:40;101842.03;;;4.44;51.52
62592;BME280;48659;41.622;2.276;2023-02-10T06:34:07;101842.09;;;4.40;51.44
62592;BME280;48659;41.622;2.276;2023-02-10T06:36:34;101851.12;;;5.03;50.35
62592;BME280;48659;41.622;2.276;2023-02-10T06:39:01;101852.65;;;4.41;51.68
62592;BME280;48659;41.622;2.276;2023-02-10T06:41:28;101853.48;;;4.49;51.92
62592;BME280;48659;41.622;2.276;2023-02-10T06:43:56;101857.62;;;4.61;51.62
62592;BME280;48659;41.622;2.276;2023-02-10T06:46:23;101856.56;;;4.01;52.80
62592;BME280;48659;41.622;2.276;2023-02-10T06:48:50;101856.94;;;3.91;52.84
62592;BME280;48659;41.622;2.276;2023-02-10T06:51:19;101859.52;;;4.18;53.56
62592;BME280;48659;41.622;2.276;2023-02-10T06:53:46;101862.09;;;3.90;53.47
62592;BME280;48659;41.622;2.276;2023-02-10T06:56:13;101865.26;;;3.48;54.69
62592;BME280;48659;41.622;2.276;2023-02-10T06:58:41;101869.15;;;4.14;53.41
62592;BME280;48659;41.622;2.276;2023-02-10T07:01:09;101871.44;;;4.23;52.50
62592;BME280;48659;41.622;2.276;2023-02-10T07:03:37;101873.03;;;4.05;52.91
62592;BME280;48659;41.622;2.276;2023-02-10T07:06:05;101871.79;;;4.61;51.64
62592;BME280;48659;41.622;2.276;2023-02-10T07:08:32;101874.50;;;4.63;51.69
62592;BME280;48659;41.622;2.276;2023-02-10T07:11:06;101878.28;;;4.54;51.76
62592;BME280;48659;41.622;2.276;2023-02-10T07:13:34;101883.47;;;3.85;53.16
62592;BME280;48659;41.622;2.276;2023-02-10T07:16:01;101885.15;;;3.62;53.85
62592;BME280;48659;41.622;2.276;2023-02-10T07:18:29;101887.77;;;3.63;53.81
62592;BME280;48659;41.622;2.276;2023-02-10T07:20:56;101890.90;;;3.93;54.39
62592;BME280;48659;41.622;2.276;2023-02-10T07:23:23;101892.22;;;3.63;54.23
62592;BME280;48659;41.622;2.276;2023-02-10T07:25:51;101894.06;;;3.87;53.93
62592;BME280;48659;41.622;2.276;2023-02-10T07:28:19;101899.21;;;3.74;54.13
62592;BME280;48659;41.622;2.276;2023-02-10T07:30:46;101906.77;;;2.63;57.21
62592;BME280;48659;41.622;2.276;2023-02-10T07:33:13;101905.92;;;2.40;57.56
62592;BME280;48659;41.622;2.276;2023-02-10T07:35:41;101901.98;;;2.52;57.55
62592;BME280;48659;41.622;2.276;2023-02-10T07:38:08;101909.37;;;0.99;61.41
62592;BME280;48659;41.622;2.276;2023-02-10T07:40:35;101915.16;;;0.98;62.78
62592;BME280;48659;41.622;2.276;2023-02-10T07:43:08;101910.86;;;2.08;62.06
62592;BME280;48659;41.622;2.276;2023-02-10T07:45:36;101911.53;;;1.37;61.47
62592;BME280;48659;41.622;2.276;2023-02-10T07:48:04;101914.02;;;1.21;62.58
62592;BME280;48659;41.622;2.276;2023-02-10T07:50:31;101921.60;;;1.95;63.15
62592;BME280;48659;41.622;2.276;2023-02-10T07:52:58;101927.32;;;1.35;62.36
62592;BME280;48659;41.622;2.276;2023-02-10T07:55:26;101926.93;;;1.46;61.96
62592;BME280;48659;41.622;2.276;2023-02-10T07:57:54;101930.86;;;1.31;63.71
62592;BME280;48659;41.622;2.276;2023-02-10T08:00:21;101931.36;;;0.86;64.17
62592;BME280;48659;41.622;2.276;2023-02-10T08:02:48;101928.42;;;1.52;62.72
62592;BME280;48659;41.622;2.276;2023-02-10T08:05:16;101929.37;;;1.55;62.69
62592;BME280;48659;41.622;2.276;2023-02-10T08:07:44;101933.44;;;1.69;62.00
62592;BME280;48659;41.622;2.276;2023-02-10T08:10:11;101929.08;;;1.50;62.72
62592;BME280;48659;41.622;2.276;2023-02-10T08:12:39;101931.17;;;2.41;59.98
62592;BME280;48659;41.622;2.276;2023-02-10T08:15:07;101932.10;;;2.95;58.75
62592;BME280;48659;41.622;2.276;2023-02-10T08:17:35;101939.49;;;2.16;59.95
62592;BME280;48659;41.622;2.276;2023-02-10T08:20:03;101929.34;;;2.42;60.01
62592;BME280;48659;41.622;2.276;2023-02-10T08:22:30;101922.95;;;2.71;57.98
62592;BME280;48659;41.622;2.276;2023-02-10T08:24:57;101917.79;;;3.84;57.96
62592;BME280;48659;41.622;2.276;2023-02-10T08:27:25;101915.78;;;2.82;57.57
62592;BME280;48659;41.622;2.276;2023-02-10T08:29:53;101916.12;;;3.30;56.71
62592;BME280;48659;41.622;2.276;2023-02-10T08:32:20;101918.95;;;2.55;56.91
62592;BME280;48659;41.622;2.276;2023-02-10T08:34:49;101923.37;;;3.33;57.22
62592;BME280;48659;41.622;2.276;2023-02-10T08:37:17;101928.05;;;2.62;57.86
62592;BME280;48659;41.622;2.276;2023-02-10T08:39:44;101927.85;;;3.81;55.66
62592;BME280;48659;41.622;2.276;2023-02-10T08:42:12;101925.06;;;3.70;54.83
62592;BME280;48659;41.622;2.276;2023-02-10T08:44:40;101928.82;;;3.46;55.53
62592;BME280;48659;41.622;2.276;2023-02-10T08:47:08;101926.63;;;4.51;53.36
62592;BME280;48659;41.622;2.276;2023-02-10T08:49:35;101926.65;;;4.15;55.08
62592;BME280;48659;41.622;2.276;2023-02-10T08:52:02;101933.20;;;3.80;55.03
62592;BME280;48659;41.622;2.276;2023-02-10T08:54:29;101931.63;;;4.64;52.90
62592;BME280;48659;41.622;2.276;2023-02-10T08:56:57;101929.81;;;5.78;51.06
62592;BME280;48659;41.622;2.276;2023-02-10T08:59:26;101929.59;;;5.23;50.72
62592;BME280;48659;41.622;2.276;2023-02-10T09:01:54;101928.57;;;5.30;50.51
62592;BME280;48659;41.622;2.276;2023-02-10T09:04:22;101932.21;;;5.78;49.35
62592;BME280;48659;41.622;2.276;2023-02-10T09:06:49;101933.76;;;5.13;49.40
62592;BME280;48659;41.622;2.276;2023-02-10T09:09:18;101943.52;;;4.13;51.34
62592;BME280;48659;41.622;2.276;2023-02-10T09:11:46;101944.12;;;4.53;51.62
62592;BME280;48659;41.622;2.276;2023-02-10T09:14:14;101944.97;;;5.02;50.68
62592;BME280;48659;41.622;2.276;2023-02-10T09:16:42;101948.24;;;5.28;48.97
62592;BME280;48659;41.622;2.276;2023-02-10T09:19:09;101947.07;;;6.03;47.34
62592;BME280;48659;41.622;2.276;2023-02-10T09:21:37;101944.19;;;6.21;46.28
62592;BME280;48659;41.622;2.276;2023-02-10T09:24:05;101935.34;;;6.19;45.97
62592;BME280;48659;41.622;2.276;2023-02-10T09:26:32;101936.09;;;6.42;46.45
62592;BME280;48659;41.622;2.276;2023-02-10T09:29:00;101943.46;;;5.03;46.81
62592;BME280;48659;41.622;2.276;2023-02-10T09:31:27;101938.48;;;6.65;44.47
62592;BME280;48659;41.622;2.276;2023-02-10T09:33:55;101935.98;;;7.97;41.64
62592;BME280;48659;41.622;2.276;2023-02-10T09:36:23;101935.40;;;8.18;40.40
62592;BME280;48659;41.622;2.276;2023-02-10T09:38:50;101934.47;;;9.10;39.12
62592;BME280;48659;41.622;2.276;2023-02-10T09:41:29;101937.79;;;9.17;38.77
62592;BME280;48659;41.622;2.276;2023-02-10T09:44:11;101941.82;;;9.23;39.15
62592;BME280;48659;41.622;2.276;2023-02-10T09:46:48;101943.78;;;9.52;38.08
62592;BME280;48659;41.622;2.276;2023-02-10T09:49:36;101943.39;;;8.56;39.44
62592;BME280;48659;41.622;2.276;2023-02-10T09:52:16;101943.20;;;9.94;38.30
62592;BME280;48659;41.622;2.276;2023-02-10T09:54:45;101941.03;;;9.86;38.28
62592;BME280;48659;41.622;2.276;2023-02-10T09:57:15;101941.09;;;10.17;38.96
62592;BME280;48659;41.622;2.276;2023-02-10T09:59:45;101939.84;;;9.76;39.64
62592;BME280;48659;41.622;2.276;2023-02-10T10:02:19;101935.47;;;10.34;39.46
62592;BME280;48659;41.622;2.276;2023-02-10T10:04:49;101936.45;;;10.86;38.35
62592;BME280;48659;41.622;2.276;2023-02-10T10:07:23;101936.91;;;10.41;37.95
62592;BME280;48659;41.622;2.276;2023-02-10T10:09:59;101936.39;;;10.74;37.44
62592;BME280;48659;41.622;2.276;2023-02-10T10:12:28;101937.42;;;10.47;37.80
62592;BME280;48659;41.622;2.276;2023-02-10T10:14:57;101938.34;;;10.70;37.61
62592;BME280;48659;41.622;2.276;2023-02-10T10:17:52;101940.80;;;10.62;37.64
62592;BME280;48659;41.622;2.276;2023-02-10T10:20:33;101937.73;;;11.24;37.03
62592;BME280;48659;41.622;2.276;2023-02-10T10:23:17;101936.73;;;11.06;37.33
62592;BME280;48659;41.622;2.276;2023-02-10T10:25:56;101937.16;;;10.87;37.09
62592;BME280;48659;41.622;2.276;2023-02-10T10:28:36;101937.76;;;11.05;37.07
62592;BME280;48659;41.622;2.276;2023-02-10T10:31:13;101935.70;;;11.16;36.98
62592;BME280;48659;41.622;2.276;2023-02-10T10:33:45;101943.74;;;10.93;37.22
62592;BME280;48659;41.622;2.276;2023-02-10T10:36:18;101937.92;;;11.10;36.76
62592;BME280;48659;41.622;2.276;2023-02-10T10:38:50;101936.53;;;11.12;36.24
62592;BME280;48659;41.622;2.276;2023-02-10T10:41:22;101936.03;;;11.23;36.81
62592;BME280;48659;41.622;2.276;2023-02-10T10:43:52;101933.91;;;11.29;37.28
62592;BME280;48659;41.622;2.276;2023-02-10T10:46:26;101938.09;;;8.99;39.49
62592;BME280;48659;41.622;2.276;2023-02-10T10:48:56;101942.06;;;9.19;39.17
62592;BME280;48659;41.622;2.276;2023-02-10T10:51:24;101935.81;;;10.59;37.28
62592;BME280;48659;41.622;2.276;2023-02-10T10:53:53;101931.79;;;10.96;37.60
62592;BME280;48659;41.622;2.276;2023-02-10T10:56:27;101935.23;;;8.84;40.40
62592;BME280;48659;41.622;2.276;2023-02-10T10:58:59;101930.56;;;10.78;37.96
62592;BME280;48659;41.622;2.276;2023-02-10T11:01:36;101934.52;;;9.44;39.43
62592;BME280;48659;41.622;2.276;2023-02-10T11:04:09;101928.83;;;9.20;40.26
62592;BME280;48659;41.622;2.276;2023-02-10T11:06:38;101926.38;;;9.61;40.00
62592;BME280;48659;41.622;2.276;2023-02-10T11:09:20;101915.19;;;11.10;37.68
62592;BME280;48659;41.622;2.276;2023-02-10T11:11:50;101908.72;;;11.81;35.95
62592;BME280;48659;41.622;2.276;2023-02-10T11:14:21;101906.69;;;10.43;36.75
62592;BME280;48659;41.622;2.276;2023-02-10T11:16:53;101899.93;;;11.32;36.36
62592;BME280;48659;41.622;2.276;2023-02-10T11:19:24;101896.23;;;11.14;35.99
62592;BME280;48659;41.622;2.276;2023-02-10T11:21:52;101899.62;;;9.13;38.22
62592;BME280;48659;41.622;2.276;2023-02-10T11:24:23;101889.27;;;10.77;36.80
62592;BME280;48659;41.622;2.276;2023-02-10T11:26:57;101878.76;;;11.21;36.01
62592;BME280;48659;41.622;2.276;2023-02-10T11:29:25;101877.81;;;11.44;35.31
62592;BME280;48659;41.622;2.276;2023-02-10T11:31:54;101878.72;;;10.53;36.90
62592;BME280;48659;41.622;2.276;2023-02-10T11:34:24;101875.53;;;11.56;35.10
62592;BME280;48659;41.622;2.276;2023-02-10T11:36:52;101874.38;;;11.78;35.98
62592;BME280;48659;41.622;2.276;2023-02-10T11:39:23;101865.26;;;11.20;35.38
62592;BME280;48659;41.622;2.276;2023-02-10T11:41:52;101856.97;;;11.40;34.74
62592;BME280;48659;41.622;2.276;2023-02-10T11:44:26;101853.75;;;10.11;36.10
62592;BME280;48659;41.622;2.276;2023-02-10T11:46:57;101847.13;;;10.79;35.82
62592;BME280;48659;41.622;2.276;2023-02-10T11:49:26;101842.81;;;11.24;35.10
62592;BME280;48659;41.622;2.276;2023-02-10T11:51:55;101834.23;;;11.60;34.86
62592;BME280;48659;41.622;2.276;2023-02-10T11:54:23;101833.15;;;10.71;36.21
62592;BME280;48659;41.622;2.276;2023-02-10T11:57:09;101825.55;;;12.08;34.00
62592;BME280;48659;41.622;2.276;2023-02-10T11:59:48;101826.46;;;10.97;34.41
62592;BME280;48659;41.622;2.276;2023-02-10T12:02:31;101824.60;;;11.50;33.87
62592;BME280;48659;41.622;2.276;2023-02-10T12:05:12;101826.40;;;9.08;36.99
62592;BME280;48659;41.622;2.276;2023-02-10T12:07:52;101816.85;;;10.40;36.52
62592;BME280;48659;41.622;2.276;2023-02-10T12:10:29;101814.90;;;11.12;35.15
62592;BME280;48659;41.622;2.276;2023-02-10T12:13:02;101806.26;;;11.80;35.04
62592;BME280;48659;41.622;2.276;2023-02-10T12:15:38;101801.93;;;12.36;33.23
62592;BME280;48659;41.622;2.276;2023-02-10T12:18:19;101799.72;;;11.99;33.08
62592;BME280;48659;41.622;2.276;2023-02-10T12:21:02;101804.05;;;10.81;34.20
62592;BME280;48659;41.622;2.276;2023-02-10T12:23:57;101799.73;;;11.21;35.09
62592;BME280;48659;41.622;2.276;2023-02-10T12:26:30;101795.89;;;10.44;37.10
62592;BME280;48659;41.622;2.276;2023-02-10T12:29:12;101785.70;;;12.19;34.14
62592;BME280;48659;41.622;2.276;2023-02-10T12:31:51;101789.31;;;9.53;37.35
62592;BME280;48659;41.622;2.276;2023-02-10T12:34:35;101788.56;;;7.61;41.88
62592;BME280;48659;41.622;2.276;2023-02-10T12:37:11;101780.21;;;10.21;38.43
62592;BME280;48659;41.622;2.276;2023-02-10T12:39:46;101774.29;;;11.85;36.06
62592;BME280;48659;41.622;2.276;2023-02-10T12:42:33;101773.06;;;10.52;36.67
62592;BME280;48659;41.622;2.276;2023-02-10T12:45:11;101767.16;;;11.21;36.20
62592;BME280;48659;41.622;2.276;2023-02-10T12:47:51;101765.58;;;12.49;34.43
62592;BME280;48659;41.622;2.276;2023-02-10T12:50:33;101762.97;;;12.38;34.29
62592;BME280;48659;41.622;2.276;2023-02-10T12:53:17;101763.30;;;11.10;35.88
62592;BME280;48659;41.622;2.276;2023-02-10T12:55:53;101759.71;;;12.17;35.84
62592;BME280;48659;41.622;2.276;2023-02-10T12:58:26;101758.16;;;12.17;35.52
62592;BME280;48659;41.622;2.276;2023-02-10T13:01:54;101762.44;;;13.00;35.12
62592;BME280;48659;41.622;2.276;2023-02-10T13:07:32;101752.09;;;11.24;36.42
62592;BME280;48659;41.622;2.276;2023-02-10T13:10:29;101743.43;;;13.09;34.09
62592;BME280;48659;41.622;2.276;2023-02-10T13:13:03;101741.86;;;12.72;33.49
62592;BME280;48659;41.622;2.276;2023-02-10T13:15:35;101740.01;;;11.35;36.74
62592;BME280;48659;41.622;2.276;2023-02-10T13:18:27;101740.21;;;11.38;35.76